Time;durP1;ratioP1;P1;durP2;ratioP2;P2;SDS_P1;SDS_P2;PMS_P1;PMS_P2;Temp;Humidity;BMP_temperature;BMP_pressure;BME280_temperature;BME280_humidity;BME280_pressure;Samples;Min_cycle;Max_cycle;Signal;HPM_P1;HPM_P2
2021/05/05 00:01:57;;;;;;;3.33;2.10;;;15.30;53.10;;;14.70;36.64;93839.28;5034618;28;20253;-80
2021/05/05 00:04:25;;;;;;;3.22;2.25;;;15.20;53.50;;;14.58;36.40;93835.91;5033151;28;20199;-80
2021/05/05 00:06:55;;;;;;;2.45;2.22;;;15.20;53.10;;;14.46;36.87;93838.66;5054278;28;20198;-80
2021/05/05 00:09:22;;;;;;;3.08;2.65;;;15.00;53.40;;;14.36;37.41;93843.78;5053376;28;20183;-80
2021/05/05 00:11:50;;;;;;;4.45;2.50;;;15.00;53.70;;;14.27;37.90;93837.31;5053556;28;20301;-80
2021/05/05 00:14:18;;;;;;;2.53;2.33;;;14.80;53.80;;;14.19;38.12;93841.94;5027626;28;20665;-80
2021/05/05 00:16:45;;;;;;;3.38;2.30;;;14.70;54.10;;;14.13;38.14;93839.50;5006651;28;20199;-80
2021/05/05 00:19:13;;;;;;;2.15;2.05;;;14.70;55.50;;;14.06;37.94;93843.09;5070660;28;20202;-79
2021/05/05 00:21:41;;;;;;;2.80;2.50;;;14.60;54.30;;;13.99;38.29;93833.72;5070622;28;20218;-79
2021/05/05 00:24:09;;;;;;;2.95;2.30;;;14.60;54.60;;;13.91;38.18;93848.94;5064016;28;20278;-80
2021/05/05 00:26:36;;;;;;;2.40;2.20;;;14.40;54.40;;;13.82;38.59;93842.44;5019497;28;20227;-79
2021/05/05 00:29:03;;;;;;;2.42;2.22;;;14.40;54.60;;;13.76;38.25;93840.75;5070130;28;20222;-80
2021/05/05 00:31:30;;;;;;;2.50;2.30;;;14.30;54.60;;;13.70;38.37;93833.81;5033895;28;20207;-80
2021/05/05 00:33:58;;;;;;;2.53;2.30;;;14.20;54.90;;;13.64;38.42;93834.75;5033059;28;20226;-79
2021/05/05 00:36:24;;;;;;;4.25;2.20;;;14.20;55.30;;;13.58;38.73;93831.22;5037338;28;20672;-80
2021/05/05 00:38:51;;;;;;;2.53;2.33;;;14.10;54.90;;;13.51;38.71;93831.38;5070067;28;20337;-79
2021/05/05 00:41:18;;;;;;;2.50;2.30;;;14.00;55.00;;;13.44;38.72;93820.97;5033429;28;20718;-80
2021/05/05 00:43:45;;;;;;;2.80;2.60;;;14.00;55.20;;;13.38;39.42;93821.94;5047068;28;20230;-80
2021/05/05 00:46:12;;;;;;;3.65;2.42;;;13.90;55.50;;;13.35;38.87;93832.09;5037306;28;20202;-80
2021/05/05 00:48:39;;;;;;;3.03;2.50;;;13.90;55.50;;;13.25;40.16;93820.34;5035646;28;20714;-80
2021/05/05 00:51:06;;;;;;;3.00;2.70;;;13.80;56.00;;;13.20;39.71;93819.47;5036017;28;20812;-80
2021/05/05 00:53:33;;;;;;;3.40;2.20;;;13.80;56.00;;;13.17;39.74;93819.91;5036189;28;20647;-80
2021/05/05 00:56:01;;;;;;;3.22;2.53;;;13.70;56.10;;;13.10;40.02;93807.69;5069498;28;20246;-79
2021/05/05 00:58:29;;;;;;;3.92;2.70;;;13.60;56.30;;;13.11;40.64;93819.03;5033547;28;20685;-79
2021/05/05 01:00:56;;;;;;;3.03;2.38;;;13.60;56.90;;;13.10;40.00;93810.31;5033497;28;20203;-79
2021/05/05 01:03:23;;;;;;;3.00;2.53;;;13.60;56.50;;;13.08;39.72;93808.97;5013269;28;20223;-80
2021/05/05 01:05:51;;;;;;;2.20;2.00;;;13.50;56.50;;;13.02;39.55;93800.16;5033802;28;20195;-79
2021/05/05 01:08:22;;;;;;;2.53;2.33;;;13.50;56.30;;;12.98;39.82;93809.56;5033882;28;20223;-79
2021/05/05 01:10:50;;;;;;;3.35;2.20;;;13.40;56.60;;;12.91;39.64;93795.75;5050029;28;20198;-80
2021/05/05 01:13:18;;;;;;;5.00;2.60;;;13.40;56.70;;;12.89;39.76;93793.34;5020372;28;20225;-79
2021/05/05 01:15:45;;;;;;;2.67;2.38;;;13.50;57.10;;;12.82;39.78;93785.56;5053303;28;20222;-80
2021/05/05 01:18:13;;;;;;;2.58;2.38;;;13.40;57.00;;;12.83;39.83;93799.53;5037322;28;20377;-80
2021/05/05 01:20:40;;;;;;;8.95;2.95;;;13.30;57.10;;;12.81;40.19;93807.66;5033043;28;20691;-80
2021/05/05 01:23:07;;;;;;;3.78;2.38;;;13.20;57.40;;;12.80;40.29;93798.19;5047791;28;20219;-79
2021/05/05 01:25:34;;;;;;;3.58;2.20;;;13.30;57.60;;;12.82;40.34;93792.69;5053618;28;20359;-80
2021/05/05 01:28:02;;;;;;;2.42;2.17;;;13.20;57.50;;;12.81;40.14;93789.22;5023587;28;20936;-79
2021/05/05 01:30:29;;;;;;;2.60;2.28;;;13.20;57.50;;;12.84;40.57;93787.19;5038055;28;20298;-79
2021/05/05 01:32:56;;;;;;;2.95;2.55;;;13.20;57.50;;;12.81;42.14;93783.97;5035583;28;20218;-79
2021/05/05 01:35:25;;;;;;;2.78;2.50;;;13.30;58.30;;;12.86;41.41;93779.84;5072835;28;20743;-80
2021/05/05 01:37:53;;;;;;;3.50;2.85;;;13.20;57.90;;;12.86;42.42;93777.22;5036516;28;20589;-80
2021/05/05 01:40:32;;;;;;;3.25;2.83;;;13.20;58.80;;;12.87;42.05;93779.63;5020217;28;20290;-80
2021/05/05 01:43:05;;;;;;;2.60;2.40;;;13.20;59.00;;;12.87;42.38;93776.97;5020155;28;20233;-79
2021/05/05 01:45:34;;;;;;;2.75;2.42;;;13.20;59.10;;;12.89;41.73;93774.94;5036849;28;20249;-79
2021/05/05 01:48:06;;;;;;;3.35;2.85;;;13.20;58.70;;;12.89;42.40;93761.78;5044668;28;20219;-80
2021/05/05 01:50:32;;;;;;;3.22;2.55;;;13.20;59.20;;;12.86;41.88;93764.84;5036367;28;20203;-80
2021/05/05 01:53:02;;;;;;;5.13;2.63;;;13.20;58.50;;;12.85;41.52;93758.00;5026674;28;20247;-79
2021/05/05 01:55:29;;;;;;;3.92;2.55;;;13.20;58.60;;;12.82;42.35;93755.84;5036335;28;20241;-80
2021/05/05 01:57:57;;;;;;;2.60;2.33;;;13.30;59.10;;;12.79;42.66;93749.22;5045082;28;20584;-79
2021/05/05 02:00:31;;;;;;;3.42;2.75;;;13.20;59.00;;;12.82;42.97;93750.56;5021368;28;20261;-79
2021/05/05 02:03:03;;;;;;;2.63;2.42;;;13.30;59.80;;;12.84;42.94;93752.97;5035398;28;20227;-80
2021/05/05 02:05:50;;;;;;;2.90;2.70;;;13.20;59.70;;;12.84;43.16;93745.06;5041762;28;20198;-79
2021/05/05 02:08:26;;;;;;;4.05;2.47;;;13.20;59.80;;;12.86;43.28;93743.81;5050481;28;20223;-80
2021/05/05 02:10:55;;;;;;;2.72;2.30;;;13.20;60.00;;;12.89;42.74;93740.72;5019557;28;20199;-79
2021/05/05 02:13:22;;;;;;;3.05;2.40;;;13.30;60.00;;;12.89;42.65;93739.91;5055382;28;20226;-79
2021/05/05 02:15:51;;;;;;;3.38;2.50;;;13.20;59.80;;;12.89;42.24;93729.38;5040114;28;20219;-80
2021/05/05 02:18:19;;;;;;;3.33;2.72;;;13.10;59.50;;;12.89;42.28;93732.00;5038860;28;20215;-80
2021/05/05 02:20:48;;;;;;;2.38;2.17;;;13.20;59.50;;;12.85;42.43;93723.00;5041270;28;20239;-79
2021/05/05 02:23:15;;;;;;;2.65;2.30;;;13.20;59.60;;;12.78;42.24;93713.41;5035277;28;20576;-79
2021/05/05 02:25:41;;;;;;;2.38;2.17;;;13.20;59.50;;;12.82;42.06;93726.91;5039768;28;20240;-80
2021/05/05 02:28:11;;;;;;;3.13;2.10;;;13.20;59.50;;;12.79;41.63;93714.19;5039605;28;20230;-80
2021/05/05 02:30:45;;;;;;;3.20;2.20;;;13.20;59.50;;;12.78;41.94;93712.59;5041052;28;20214;-79
2021/05/05 02:33:15;;;;;;;2.30;2.10;;;13.10;59.50;;;12.78;42.16;93716.03;5034591;28;20321;-80
2021/05/05 02:35:44;;;;;;;2.47;2.28;;;13.20;59.70;;;12.76;42.10;93714.69;5051313;28;20223;-80
2021/05/05 02:38:14;;;;;;;3.55;2.30;;;13.10;59.60;;;12.75;42.06;93708.59;5035521;28;20230;-79
2021/05/05 02:40:43;;;;;;;2.45;2.25;;;13.10;59.80;;;12.72;42.36;93709.09;5023011;28;20666;-80
2021/05/05 02:43:10;;;;;;;6.30;2.88;;;13.20;60.00;;;12.68;42.38;93704.53;5038480;28;20223;-80
2021/05/05 02:45:39;;;;;;;2.67;2.28;;;13.10;59.80;;;12.65;42.33;93701.31;5054983;28;20564;-80
2021/05/05 02:48:07;;;;;;;2.55;2.25;;;13.10;59.90;;;12.65;42.41;93696.06;5036577;28;20264;-79
2021/05/05 02:50:34;;;;;;;3.60;2.40;;;13.00;59.90;;;12.65;42.46;93693.44;5003276;28;20294;-79
2021/05/05 02:53:01;;;;;;;2.38;2.15;;;13.00;60.10;;;12.68;42.66;93694.00;5023475;28;20238;-79
2021/05/05 02:55:29;;;;;;;2.65;2.28;;;13.00;60.00;;;12.68;42.61;93691.38;5055402;28;20241;-80
2021/05/05 02:57:56;;;;;;;3.85;2.25;;;13.10;60.30;;;12.71;42.93;93690.91;5044657;28;20229;-79
2021/05/05 03:00:23;;;;;;;3.10;2.40;;;13.00;60.20;;;12.72;42.99;93693.31;5039331;28;20664;-80
2021/05/05 03:02:49;;;;;;;2.95;2.38;;;13.00;60.30;;;12.73;42.86;93686.19;5028336;28;20231;-79
2021/05/05 03:05:16;;;;;;;2.20;2.10;;;13.00;60.30;;;12.76;42.91;93688.38;5054491;28;20207;-80
2021/05/05 03:07:43;;;;;;;3.38;2.38;;;13.10;60.50;;;12.76;42.90;93678.63;5037278;28;20222;-80
2021/05/05 03:10:10;;;;;;;2.50;2.20;;;13.00;60.50;;;12.77;43.68;93679.44;5050075;28;20203;-80
2021/05/05 03:12:37;;;;;;;2.50;2.30;;;13.00;60.70;;;12.77;43.31;93680.25;5025523;28;20223;-80
2021/05/05 03:15:07;;;;;;;3.55;2.60;;;13.00;60.60;;;12.78;43.68;93676.56;5053496;28;20233;-80
2021/05/05 03:17:34;;;;;;;2.95;2.38;;;13.10;60.90;;;12.79;43.49;93677.38;5053579;28;20230;-79
2021/05/05 03:20:01;;;;;;;3.17;2.42;;;13.20;60.90;;;12.80;43.62;93676.31;5037300;28;20199;-80
2021/05/05 03:22:28;;;;;;;3.00;2.50;;;13.10;60.80;;;12.83;43.50;93678.50;5036535;28;20230;-79
2021/05/05 03:24:55;;;;;;;2.30;2.10;;;13.20;60.80;;;12.83;43.48;93660.09;5054948;28;20203;-79
2021/05/05 03:27:21;;;;;;;2.50;2.15;;;13.10;60.70;;;12.86;43.27;93662.22;5054797;28;20211;-79
2021/05/05 03:29:47;;;;;;;2.50;2.30;;;13.20;60.70;;;12.89;43.42;93666.22;5022283;28;20203;-80
2021/05/05 03:32:14;;;;;;;2.63;2.40;;;13.20;60.70;;;12.88;43.17;93664.66;5054730;28;20227;-80
2021/05/05 03:34:40;;;;;;;2.50;2.30;;;13.10;60.60;;;12.88;43.12;93660.16;5037733;28;20264;-79
2021/05/05 03:37:07;;;;;;;3.13;2.20;;;13.10;60.70;;;12.88;43.39;93649.63;5054736;28;20692;-79
2021/05/05 03:39:33;;;;;;;2.40;2.20;;;13.20;60.70;;;12.87;43.23;93645.41;5038085;28;20265;-80
2021/05/05 03:42:00;;;;;;;2.60;2.40;;;13.20;60.70;;;12.87;43.28;93640.16;5038156;28;20211;-79
2021/05/05 03:44:26;;;;;;;3.58;2.55;;;13.20;60.70;;;12.85;43.30;93649.31;5031929;28;20218;-80
2021/05/05 03:46:53;;;;;;;2.60;2.30;;;13.20;60.80;;;12.85;42.94;93644.84;5043801;28;20234;-79
2021/05/05 03:49:20;;;;;;;2.63;2.42;;;13.20;60.80;;;12.86;43.37;93649.06;5023861;28;20260;-79
2021/05/05 03:51:49;;;;;;;3.10;2.17;;;13.20;60.90;;;12.84;43.40;93640.63;4999949;28;20219;-79
2021/05/05 03:54:17;;;;;;;3.78;2.70;;;13.10;60.80;;;12.80;43.46;93639.50;5003444;28;20199;-80
2021/05/05 03:56:44;;;;;;;2.50;2.30;;;13.10;60.90;;;12.82;43.40;93647.97;5032467;28;20188;-80
2021/05/05 03:59:11;;;;;;;3.65;2.40;;;13.10;60.90;;;12.76;43.37;93639.16;5018057;28;20202;-81
2021/05/05 04:01:38;;;;;;;5.88;2.50;;;13.20;60.90;;;12.83;43.45;93641.66;5052137;28;20665;-79
2021/05/05 04:04:05;;;;;;;6.63;5.55;;;13.10;61.80;;;12.85;43.50;93655.38;5034360;28;20223;-80
2021/05/05 04:06:31;;;;;;;5.30;4.03;;;13.10;60.90;;;12.82;43.77;93646.13;5031740;28;20207;-80
2021/05/05 04:08:58;;;;;;;5.85;4.30;;;13.10;61.00;;;12.84;43.86;93656.44;5048902;28;20224;-80
2021/05/05 04:11:25;;;;;;;5.10;4.10;;;13.10;60.90;;;12.85;43.92;93646.69;5034778;28;20726;-80
2021/05/05 04:13:52;;;;;;;3.55;3.25;;;13.10;61.10;;;12.85;43.88;93646.69;5045315;28;20227;-79
2021/05/05 04:16:37;;;;;;;3.28;2.50;;;13.10;61.10;;;12.83;43.42;93644.28;5048222;28;20221;-81
2021/05/05 04:19:22;;;;;;;5.15;3.72;;;13.20;61.30;;;12.86;43.56;93648.28;5056514;28;20194;-80
2021/05/05 04:22:07;;;;;;;4.43;2.80;;;13.20;61.20;;;12.86;44.00;93649.06;5041097;28;20222;-80
2021/05/05 04:24:52;;;;;;;2.67;2.47;;;13.10;61.20;;;12.84;43.91;93651.16;5056782;28;20186;-81
2021/05/05 04:27:19;;;;;;;4.10;2.70;;;13.10;61.30;;;12.83;44.60;93654.81;5033427;28;20219;-80
2021/05/05 04:29:47;;;;;;;3.25;2.80;;;13.20;61.50;;;12.87;44.32;93655.94;5018151;28;20568;-81
2021/05/05 04:32:14;;;;;;;3.60;3.00;;;13.20;61.50;;;12.89;44.06;93642.53;5028944;28;20230;-79
2021/05/05 04:34:42;;;;;;;2.63;2.35;;;13.20;61.50;;;12.93;44.13;93633.16;5033881;28;20232;-80
2021/05/05 04:37:09;;;;;;;3.05;2.40;;;13.20;61.60;;;12.96;43.88;93632.66;5034295;28;20689;-81
2021/05/05 04:39:38;;;;;;;2.58;2.38;;;13.30;61.60;;;12.97;44.13;93636.88;5017888;28;20290;-80
2021/05/05 04:42:07;;;;;;;3.17;2.50;;;13.20;61.60;;;13.01;44.05;93637.22;5006956;28;20223;-80
2021/05/05 04:44:34;;;;;;;2.90;2.70;;;13.20;61.60;;;13.00;44.40;93639.06;5017739;28;20215;-80
2021/05/05 04:47:01;;;;;;;4.45;3.10;;;13.20;61.70;;;13.04;44.53;93640.16;5017725;28;20222;-80
2021/05/05 04:49:28;;;;;;;3.83;3.22;;;13.20;61.80;;;13.05;44.38;93640.94;5020795;28;20203;-81
2021/05/05 04:51:54;;;;;;;4.20;2.60;;;13.40;61.90;;;13.09;44.44;93642.09;5043481;28;20213;-80
2021/05/05 04:54:21;;;;;;;4.95;3.38;;;13.30;61.80;;;13.10;44.24;93641.06;5044089;28;20690;-81
2021/05/05 04:56:48;;;;;;;3.75;3.20;;;13.30;61.80;;;13.11;45.09;93643.44;5034700;28;20226;-80
2021/05/05 04:59:15;;;;;;;5.20;4.60;;;13.40;62.10;;;13.14;44.59;93647.44;5036858;28;20202;-81
2021/05/05 05:01:41;;;;;;;3.88;3.47;;;13.40;62.10;;;13.16;44.77;93639.28;5052733;28;20230;-81
2021/05/05 05:04:08;;;;;;;3.78;3.33;;;13.40;62.10;;;13.18;44.55;93639.84;5053410;28;20194;-82
2021/05/05 05:06:34;;;;;;;3.25;2.95;;;13.40;62.00;;;13.22;44.62;93640.97;5050008;28;20653;-81
2021/05/05 05:09:01;;;;;;;3.30;2.80;;;13.40;62.10;;;13.25;44.75;93638.66;5016375;28;20211;-81
2021/05/05 05:11:28;;;;;;;2.95;2.70;;;13.40;62.10;;;13.29;44.68;93642.41;5024719;28;20226;-81
2021/05/05 05:13:55;;;;;;;3.22;2.80;;;13.40;62.20;;;13.32;44.84;93641.13;5036329;28;20219;-81
2021/05/05 05:16:21;;;;;;;5.43;2.92;;;13.50;62.30;;;13.38;45.08;93636.78;5053592;28;20233;-81
2021/05/05 05:18:49;;;;;;;3.70;3.15;;;13.50;62.40;;;13.42;45.25;93636.03;5036914;28;20241;-79
2021/05/05 05:21:15;;;;;;;2.80;2.60;;;13.60;62.50;;;13.46;44.85;93625.81;5018756;28;20285;-80
2021/05/05 05:23:43;;;;;;;4.10;2.83;;;13.60;62.40;;;13.51;44.84;93628.56;5063963;28;20223;-81
2021/05/05 05:26:10;;;;;;;4.00;3.40;;;13.70;62.50;;;13.55;44.64;93621.75;5040999;28;20215;-80
2021/05/05 05:28:36;;;;;;;4.78;3.45;;;13.70;62.60;;;13.59;45.06;93624.69;5044284;28;20235;-80
2021/05/05 05:31:03;;;;;;;5.25;3.53;;;13.70;62.50;;;13.66;45.13;93629.78;5032751;28;20688;-81
2021/05/05 05:33:30;;;;;;;5.15;4.28;;;13.80;62.60;;;13.71;45.22;93630.66;5024988;28;20267;-81
2021/05/05 05:35:57;;;;;;;6.22;3.90;;;13.80;62.60;;;13.77;45.73;93627.03;5052715;28;20749;-81
2021/05/05 05:38:23;;;;;;;5.40;3.55;;;13.90;62.90;;;13.84;45.40;93631.34;5006125;28;20227;-79
2021/05/05 05:40:50;;;;;;;4.50;3.25;;;13.90;62.70;;;13.89;45.30;93626.13;5016438;28;20714;-81
2021/05/05 05:43:16;;;;;;;3.88;3.40;;;14.00;62.70;;;13.95;45.48;93621.72;5019670;28;20226;-80
2021/05/05 05:45:42;;;;;;;3.13;2.80;;;14.10;63.00;;;14.01;45.27;93620.75;5035505;28;20219;-80
2021/05/05 05:48:11;;;;;;;3.97;3.58;;;14.10;62.90;;;14.05;45.52;93627.94;5052516;28;20282;-81
2021/05/05 05:50:38;;;;;;;3.08;2.53;;;14.10;63.00;;;14.11;45.29;93626.16;5036147;28;20253;-80
2021/05/05 05:53:06;;;;;;;4.90;3.60;;;14.20;63.00;;;14.18;45.24;93623.31;5034774;28;20292;-80
2021/05/05 05:55:34;;;;;;;4.07;3.35;;;14.20;62.90;;;14.24;45.69;93622.34;5036064;28;20233;-81
2021/05/05 05:58:00;;;;;;;3.88;3.05;;;14.30;63.10;;;14.28;45.88;93631.38;5035098;28;20223;-80
2021/05/05 06:00:27;;;;;;;4.75;3.15;;;14.30;63.10;;;14.31;45.92;93625.59;5036224;28;20626;-81
2021/05/05 06:02:53;;;;;;;4.18;3.00;;;14.40;63.30;;;14.37;45.69;93618.53;5067932;28;20215;-80
2021/05/05 06:05:19;;;;;;;4.80;2.88;;;14.50;63.20;;;14.49;45.76;93607.84;5035828;28;20599;-81
2021/05/05 06:07:46;;;;;;;3.38;2.95;;;14.50;63.20;;;14.61;45.48;93615.63;5035914;28;20704;-82
2021/05/05 06:10:13;;;;;;;3.22;2.92;;;14.60;63.20;;;14.76;45.18;93614.97;5055440;28;20238;-81
2021/05/05 06:12:40;;;;;;;3.45;3.10;;;14.60;63.30;;;14.89;45.27;93612.75;5071844;28;20230;-81
2021/05/05 06:15:09;;;;;;;4.03;2.83;;;14.80;63.40;;;15.01;45.20;93617.06;5052147;28;20250;-80
2021/05/05 06:17:36;;;;;;;4.07;3.50;;;14.80;63.30;;;15.11;45.42;93614.53;5037683;28;20261;-79
2021/05/05 06:20:05;;;;;;;6.00;3.22;;;15.00;63.40;;;15.19;45.33;93615.91;5037376;28;20683;-80
2021/05/05 06:22:32;;;;;;;8.52;3.40;;;15.10;63.40;;;15.25;45.27;93617.53;5037684;28;20219;-80
2021/05/05 06:25:00;;;;;;;4.53;2.95;;;15.20;63.30;;;15.30;44.82;93620.19;5051340;28;20732;-81
2021/05/05 06:27:27;;;;;;;3.58;2.90;;;15.20;63.20;;;15.35;45.32;93625.50;5036412;28;20223;-80
2021/05/05 06:29:53;;;;;;;3.08;2.78;;;15.30;63.20;;;15.39;44.96;93625.81;5056168;28;20264;-81
2021/05/05 06:32:20;;;;;;;3.03;2.72;;;15.40;63.20;;;15.43;45.21;93618.16;5055347;28;20368;-80
2021/05/05 06:34:48;;;;;;;4.05;3.05;;;15.40;63.30;;;15.47;45.33;93611.34;5036012;28;20230;-80
2021/05/05 06:37:16;;;;;;;3.45;3.15;;;15.50;63.10;;;15.52;45.07;93617.44;5034845;28;20227;-80
2021/05/05 06:39:43;;;;;;;3.35;2.97;;;15.50;63.10;;;15.53;45.50;93631.47;5019871;28;20195;-80
2021/05/05 06:42:10;;;;;;;3.50;3.10;;;15.60;63.10;;;15.55;45.48;93618.00;5061564;28;20706;-79
2021/05/05 06:44:37;;;;;;;3.88;3.42;;;15.60;63.10;;;15.56;45.48;93623.00;5037205;28;20229;-79
2021/05/05 06:47:04;;;;;;;3.67;2.80;;;15.60;63.10;;;15.60;45.35;93620.66;5038522;28;20597;-79
2021/05/05 06:49:33;;;;;;;3.20;2.90;;;15.60;62.90;;;15.59;45.44;93611.94;5022787;28;20203;-80
2021/05/05 06:52:00;;;;;;;4.60;2.85;;;15.60;63.00;;;15.68;45.05;93609.63;5039584;28;20226;-80
2021/05/05 06:54:27;;;;;;;3.20;2.88;;;15.70;63.10;;;15.69;45.42;93622.56;5045343;28;20199;-80
2021/05/05 06:56:53;;;;;;;3.30;3.00;;;15.70;63.20;;;15.72;45.36;93609.91;5019329;28;20227;-79
2021/05/05 06:59:20;;;;;;;3.33;3.03;;;15.80;63.10;;;15.75;45.16;93618.13;5035973;28;20215;-81
2021/05/05 07:01:46;;;;;;;3.10;2.80;;;15.80;63.10;;;15.79;45.14;93605.97;5035537;28;20618;-80
2021/05/05 07:04:13;;;;;;;3.58;3.28;;;15.80;63.20;;;15.79;45.36;93631.63;5021926;28;20219;-81
2021/05/05 07:06:40;;;;;;;3.38;3.08;;;15.90;63.20;;;15.74;45.47;93621.81;5002990;28;20207;-80
2021/05/05 07:09:23;;;;;;;3.88;3.00;;;15.90;63.30;;;15.69;45.54;93625.22;5052379;28;20833;-79
2021/05/05 07:11:50;;;;;;;3.13;2.83;;;15.80;63.00;;;15.68;45.43;93621.00;5068990;28;20203;-80
2021/05/05 07:14:17;;;;;;;3.10;2.80;;;15.80;63.00;;;15.68;45.57;93628.94;5053418;28;20196;-80
2021/05/05 07:16:43;;;;;;;3.13;2.88;;;15.90;63.10;;;15.65;45.82;93626.00;5038899;28;20210;-80
2021/05/05 07:19:10;;;;;;;4.15;3.00;;;15.90;63.20;;;15.63;45.67;93617.53;5073179;28;20199;-81
2021/05/05 07:21:37;;;;;;;3.53;2.50;;;15.80;63.00;;;15.64;45.94;93630.47;5037803;28;20238;-80
2021/05/05 07:24:04;;;;;;;2.97;2.55;;;15.90;63.20;;;15.62;45.74;93637.06;5054977;28;20222;-80
2021/05/05 07:26:30;;;;;;;4.68;2.80;;;15.80;63.00;;;15.61;45.40;93640.75;5035193;28;20210;-80
2021/05/05 07:28:57;;;;;;;3.20;2.65;;;15.80;63.10;;;15.58;45.78;93638.63;5035417;28;20222;-80
2021/05/05 07:31:24;;;;;;;2.80;2.60;;;15.80;63.10;;;15.55;45.75;93637.31;5051224;28;20218;-79
2021/05/05 07:33:51;;;;;;;3.28;2.90;;;15.80;63.20;;;15.55;45.71;93652.34;5018792;28;20226;-81
2021/05/05 07:36:25;;;;;;;3.85;2.85;;;15.80;63.20;;;15.51;46.04;93650.22;5058176;28;20692;-81
2021/05/05 07:47:10;;;;;;;3.00;2.67;;;15.70;63.60;;;15.42;46.52;93640.38;5036767;28;20650;-80
2021/05/05 07:49:44;;;;;;;3.00;2.70;;;15.70;63.60;;;15.43;46.43;93645.41;5034555;28;20246;-80
2021/05/05 07:52:10;;;;;;;2.80;2.60;;;15.60;63.50;;;15.45;46.53;93640.66;5019251;28;20249;-80
2021/05/05 07:54:36;;;;;;;4.55;3.00;;;15.70;63.60;;;15.47;46.46;93651.75;5054161;28;20558;-80
2021/05/05 07:57:03;;;;;;;4.00;2.97;;;15.60;63.60;;;15.47;46.70;93640.41;5054482;28;20224;-80
2021/05/05 07:59:29;;;;;;;2.90;2.63;;;15.70;63.80;;;15.47;46.50;93649.13;5054448;28;20190;-80
2021/05/05 08:01:55;;;;;;;2.90;2.60;;;15.70;63.80;;;15.52;46.34;93648.38;5037991;28;20199;-79
2021/05/05 08:04:22;;;;;;;3.08;2.78;;;15.70;63.80;;;15.50;46.76;93647.81;5038216;28;20205;-80
2021/05/05 08:06:50;;;;;;;2.58;2.38;;;15.70;63.90;;;15.52;46.74;93657.06;5030347;28;20199;-80
2021/05/05 08:09:16;;;;;;;2.45;2.25;;;15.70;63.90;;;15.57;47.17;93644.97;5021895;28;20250;-80
2021/05/05 08:11:43;;;;;;;2.75;2.47;;;15.70;63.90;;;15.59;46.83;93656.88;5034567;28;20203;-80
2021/05/05 08:14:10;;;;;;;2.90;2.60;;;15.80;64.00;;;15.65;46.98;93663.00;5034784;28;20229;-80
2021/05/05 08:16:37;;;;;;;2.75;2.20;;;15.80;64.10;;;15.64;46.98;93656.91;5034621;28;20246;-80
2021/05/05 08:19:04;;;;;;;2.63;2.00;;;15.80;64.00;;;15.68;46.28;93654.56;5067570;28;20218;-80
2021/05/05 08:21:30;;;;;;;2.88;2.67;;;15.80;64.00;;;15.69;46.66;93670.16;5033922;28;20207;-80
2021/05/05 08:23:58;;;;;;;3.58;2.92;;;15.80;64.00;;;15.65;47.00;93681.50;5051095;28;20290;-79
2021/05/05 08:26:27;;;;;;;6.32;2.78;;;15.90;64.40;;;15.50;47.75;93682.16;5034616;28;20203;-79
2021/05/05 08:28:54;;;;;;;3.00;2.75;;;15.80;64.60;;;15.39;48.22;93699.78;5017918;28;20219;-79
2021/05/05 08:31:21;;;;;;;3.15;2.40;;;15.80;64.80;;;15.22;48.43;93715.75;5025485;28;20210;-80
2021/05/05 08:33:48;;;;;;;2.78;2.53;;;15.70;64.80;;;15.01;48.63;93709.47;5037522;28;20218;-80
2021/05/05 08:36:14;;;;;;;2.65;2.08;;;15.50;65.00;;;14.81;49.39;93723.28;5037551;28;20226;-80
2021/05/05 08:38:41;;;;;;;2.40;2.20;;;15.40;65.20;;;14.57;49.29;93728.78;5021151;28;20573;-80
2021/05/05 08:41:10;;;;;;;2.28;2.08;;;15.30;65.10;;;14.34;49.79;93732.44;5016738;28;20690;-80
2021/05/05 08:43:37;;;;;;;2.28;2.08;;;15.00;65.20;;;14.12;50.12;93727.94;5033993;28;20247;-80
2021/05/05 08:46:08;;;;;;;2.15;1.92;;;14.80;65.30;;;13.92;49.87;93745.06;5017702;28;20274;-79
2021/05/05 08:48:36;;;;;;;2.53;1.80;;;14.70;65.30;;;13.73;49.77;93755.06;5034500;28;20273;-80
2021/05/05 08:51:08;;;;;;;2.05;1.80;;;14.50;65.40;;;13.52;50.61;93756.56;5057923;28;20735;-79
2021/05/05 08:53:35;;;;;;;2.00;1.90;;;14.30;65.70;;;13.30;51.24;93780.13;5017906;28;20727;-79
2021/05/05 08:56:02;;;;;;;4.20;2.05;;;14.20;66.10;;;13.03;52.08;93785.97;5000904;28;20231;-78
2021/05/05 08:58:29;;;;;;;1.92;1.83;;;13.90;66.30;;;12.78;52.37;93794.97;5001268;28;20227;-80
2021/05/05 09:00:55;;;;;;;3.88;1.80;;;13.70;66.40;;;12.57;52.65;93812.19;5050089;28;20237;-80
2021/05/05 09:03:40;;;;;;;1.55;1.45;;;13.40;66.50;;;12.36;52.63;93818.03;5017602;28;20314;-79
2021/05/05 09:06:07;;;;;;;2.30;1.30;;;13.20;66.70;;;12.14;52.98;93835.16;5017561;28;20222;-80
2021/05/05 09:08:35;;;;;;;2.40;1.50;;;13.00;66.70;;;11.93;53.64;93843.59;5013599;28;20684;-80
2021/05/05 09:11:08;;;;;;;1.30;1.20;;;13.00;67.10;;;11.71;52.95;93838.84;5069496;28;20203;-79
2021/05/05 09:13:45;;;;;;;1.45;1.35;;;12.60;66.70;;;11.47;53.15;93844.03;5032404;28;20265;-79
2021/05/05 09:16:15;;;;;;;2.13;1.10;;;12.40;66.60;;;11.31;53.13;93849.91;5052944;28;20246;-80
2021/05/05 09:18:53;;;;;;;1.10;1.10;;;12.30;66.80;;;11.10;52.72;93846.75;5036914;28;20226;-80
2021/05/05 09:21:52;;;;;;;1.08;1.08;;;12.10;66.90;;;10.95;53.14;93847.16;5071126;28;20259;-79
2021/05/05 09:24:33;;;;;;;1.38;1.27;;;11.90;66.80;;;10.80;53.25;93852.78;5008570;28;20196;-80
2021/05/05 09:27:06;;;;;;;1.02;1.00;;;11.70;67.10;;;10.65;55.14;93865.44;5049996;28;20579;-80
2021/05/05 09:29:45;;;;;;;1.33;1.10;;;11.60;67.30;;;10.52;54.15;93854.06;5017194;28;20200;-81
2021/05/05 09:32:15;;;;;;;2.40;1.08;;;11.50;68.10;;;10.39;55.77;93851.56;5023014;28;20226;-79
2021/05/05 09:34:55;;;;;;;1.05;1.05;;;11.40;68.70;;;10.25;56.22;93848.22;5036062;28;20203;-79
2021/05/05 09:37:24;;;;;;;1.27;1.17;;;11.30;68.80;;;10.15;56.18;93853.19;5016962;28;20227;-78
2021/05/05 09:40:08;;;;;;;1.60;1.42;;;11.10;68.80;;;10.07;55.80;93849.00;5033421;28;20278;-79
2021/05/05 09:42:36;;;;;;;1.05;0.95;;;11.00;69.60;;;9.99;56.60;93823.09;5024359;28;20607;-78
2021/05/05 09:45:08;;;;;;;1.38;1.25;;;10.90;69.20;;;9.92;56.82;93808.22;5040111;28;20649;-78
2021/05/05 09:47:56;;;;;;;1.25;1.00;;;10.80;69.60;;;9.88;56.46;93814.91;5040015;28;20234;-78
2021/05/05 09:50:44;;;;;;;1.58;1.40;;;10.70;70.20;;;9.86;56.11;93803.03;5056499;28;20274;-78
2021/05/05 09:53:31;;;;;;;1.50;1.40;;;10.70;70.30;;;9.89;55.72;93808.66;5073182;28;20211;-78
2021/05/05 09:55:58;;;;;;;3.60;1.60;;;10.60;70.70;;;10.00;55.38;93794.06;5023698;28;20246;-78
2021/05/05 09:58:34;;;;;;;2.38;1.30;;;10.60;69.90;;;10.10;55.48;93810.06;5056453;28;20767;-78
2021/05/05 10:01:04;;;;;;;1.33;1.23;;;10.60;70.70;;;10.18;55.80;93821.28;5035747;28;20204;-78
2021/05/05 10:03:52;;;;;;;1.70;1.20;;;10.60;71.00;;;10.23;56.17;93829.31;5055852;28;20223;-78
2021/05/05 10:06:37;;;;;;;0.98;0.98;;;10.70;71.00;;;10.22;56.63;93832.97;5037000;28;20909;-77
2021/05/05 10:09:11;;;;;;;1.52;1.08;;;10.70;70.30;;;10.18;56.95;93829.16;5019518;28;20257;-77
2021/05/05 10:11:43;;;;;;;1.10;1.10;;;10.70;70.90;;;10.08;57.22;93827.84;5018456;28;20200;-78
2021/05/05 10:14:13;;;;;;;1.58;1.13;;;10.80;70.80;;;10.12;56.83;93837.88;5018104;28;20211;-79
2021/05/05 10:16:49;;;;;;;1.30;1.20;;;10.70;70.50;;;10.13;56.84;93839.47;5018162;28;20270;-78
2021/05/05 10:19:28;;;;;;;1.35;1.25;;;10.80;70.80;;;10.13;57.21;93835.06;5030825;28;20195;-79
2021/05/05 10:22:03;;;;;;;2.22;1.30;;;10.70;70.90;;;10.16;57.28;93823.34;5023111;28;20719;-78
2021/05/05 10:24:32;;;;;;;1.25;1.20;;;10.80;71.50;;;10.17;57.00;93830.97;5049180;28;20669;-79
2021/05/05 10:26:59;;;;;;;1.35;1.10;;;10.80;70.90;;;10.29;56.58;93827.63;5025708;28;20195;-79
2021/05/05 10:29:28;;;;;;;1.20;1.20;;;10.80;70.90;;;10.33;57.67;93831.44;5039709;28;20228;-80
2021/05/05 10:32:01;;;;;;;1.42;1.33;;;10.80;70.80;;;10.32;57.50;93806.25;5040058;28;20298;-79
2021/05/05 10:34:30;;;;;;;1.17;1.10;;;10.90;71.00;;;10.28;56.90;93844.38;5072634;28;20302;-80
2021/05/05 10:37:01;;;;;;;1.20;1.10;;;10.80;70.50;;;10.24;56.93;93836.97;5039190;28;20677;-80